sensor_id;sensor_type;location;lat;lon;timestamp;P1;durP1;ratioP1;P2;durP2;ratioP2
47758;SDS011;33520;55.122;35.582;2022-11-20T00:01:21;8.10;;;3.95;;
47758;SDS011;33520;55.122;35.582;2022-11-20T00:03:49;8.48;;;4.13;;
47758;SDS011;33520;55.122;35.582;2022-11-20T00:06:17;8.27;;;4.43;;
47758;SDS011;33520;55.122;35.582;2022-11-20T00:08:44;7.95;;;4.35;;
47758;SDS011;33520;55.122;35.582;2022-11-20T00:11:14;7.68;;;4.22;;
47758;SDS011;33520;55.122;35.582;2022-11-20T00:13:43;8.65;;;4.30;;
47758;SDS011;33520;55.122;35.582;2022-11-20T00:16:11;7.32;;;3.95;;
47758;SDS011;33520;55.122;35.582;2022-11-20T00:18:38;7.93;;;4.60;;
47758;SDS011;33520;55.122;35.582;2022-11-20T00:21:10;7.30;;;3.95;;
47758;SDS011;33520;55.122;35.582;2022-11-20T00:23:37;9.52;;;4.15;;
47758;SDS011;33520;55.122;35.582;2022-11-20T00:26:05;8.27;;;4.43;;
47758;SDS011;33520;55.122;35.582;2022-11-20T00:28:32;7.13;;;4.07;;
47758;SDS011;33520;55.122;35.582;2022-11-20T00:33:29;19.52;;;4.68;;
47758;SDS011;33520;55.122;35.582;2022-11-20T00:38:30;6.32;;;3.95;;
47758;SDS011;33520;55.122;35.582;2022-11-20T00:41:01;10.30;;;4.30;;
47758;SDS011;33520;55.122;35.582;2022-11-20T00:43:29;6.20;;;4.20;;
47758;SDS011;33520;55.122;35.582;2022-11-20T00:46:14;7.35;;;3.90;;
47758;SDS011;33520;55.122;35.582;2022-11-20T00:48:43;6.53;;;3.87;;
47758;SDS011;33520;55.122;35.582;2022-11-20T00:51:10;7.43;;;4.15;;
47758;SDS011;33520;55.122;35.582;2022-11-20T00:53:38;8.85;;;4.07;;
47758;SDS011;33520;55.122;35.582;2022-11-20T00:56:05;9.15;;;4.28;;
47758;SDS011;33520;55.122;35.582;2022-11-20T00:58:37;7.20;;;4.35;;
47758;SDS011;33520;55.122;35.582;2022-11-20T01:03:36;8.00;;;4.20;;
47758;SDS011;33520;55.122;35.582;2022-11-20T01:06:11;7.03;;;3.78;;
47758;SDS011;33520;55.122;35.582;2022-11-20T01:08:39;8.80;;;4.03;;
47758;SDS011;33520;55.122;35.582;2022-11-20T01:11:09;7.53;;;4.18;;
47758;SDS011;33520;55.122;35.582;2022-11-20T01:13:37;6.20;;;4.25;;
47758;SDS011;33520;55.122;35.582;2022-11-20T01:16:12;8.38;;;3.80;;
47758;SDS011;33520;55.122;35.582;2022-11-20T01:18:39;8.02;;;4.40;;
47758;SDS011;33520;55.122;35.582;2022-11-20T01:21:08;9.05;;;4.20;;
47758;SDS011;33520;55.122;35.582;2022-11-20T01:23:37;6.78;;;3.92;;
47758;SDS011;33520;55.122;35.582;2022-11-20T01:26:06;7.75;;;4.38;;
47758;SDS011;33520;55.122;35.582;2022-11-20T01:28:33;7.90;;;3.80;;
47758;SDS011;33520;55.122;35.582;2022-11-20T01:33:26;10.63;;;4.88;;
47758;SDS011;33520;55.122;35.582;2022-11-20T01:35:53;8.90;;;4.90;;
47758;SDS011;33520;55.122;35.582;2022-11-20T01:38:19;8.27;;;4.50;;
47758;SDS011;33520;55.122;35.582;2022-11-20T01:40:53;7.35;;;4.55;;
47758;SDS011;33520;55.122;35.582;2022-11-20T01:43:20;10.25;;;4.85;;
47758;SDS011;33520;55.122;35.582;2022-11-20T01:48:19;8.18;;;4.22;;
47758;SDS011;33520;55.122;35.582;2022-11-20T01:50:46;7.88;;;5.05;;
47758;SDS011;33520;55.122;35.582;2022-11-20T01:53:13;8.65;;;4.63;;
47758;SDS011;33520;55.122;35.582;2022-11-20T01:55:45;9.80;;;4.80;;
47758;SDS011;33520;55.122;35.582;2022-11-20T01:58:14;10.45;;;4.47;;
47758;SDS011;33520;55.122;35.582;2022-11-20T02:00:41;14.15;;;5.57;;
47758;SDS011;33520;55.122;35.582;2022-11-20T02:03:12;7.82;;;4.45;;
47758;SDS011;33520;55.122;35.582;2022-11-20T02:05:41;8.68;;;5.30;;
47758;SDS011;33520;55.122;35.582;2022-11-20T02:08:11;8.60;;;5.05;;
47758;SDS011;33520;55.122;35.582;2022-11-20T02:10:38;8.88;;;4.95;;
47758;SDS011;33520;55.122;35.582;2022-11-20T02:13:04;8.57;;;4.40;;
47758;SDS011;33520;55.122;35.582;2022-11-20T02:15:49;9.63;;;4.32;;
47758;SDS011;33520;55.122;35.582;2022-11-20T02:18:16;7.88;;;4.25;;
47758;SDS011;33520;55.122;35.582;2022-11-20T02:20:45;9.93;;;4.65;;
47758;SDS011;33520;55.122;35.582;2022-11-20T02:24:00;11.93;;;5.50;;
47758;SDS011;33520;55.122;35.582;2022-11-20T02:26:04;15.15;;;5.03;;
47758;SDS011;33520;55.122;35.582;2022-11-20T02:28:33;8.82;;;4.63;;
47758;SDS011;33520;55.122;35.582;2022-11-20T02:31:00;6.95;;;4.13;;
47758;SDS011;33520;55.122;35.582;2022-11-20T02:35:52;9.13;;;4.90;;
47758;SDS011;33520;55.122;35.582;2022-11-20T02:38:19;7.15;;;3.92;;
47758;SDS011;33520;55.122;35.582;2022-11-20T02:40:45;9.30;;;3.88;;
47758;SDS011;33520;55.122;35.582;2022-11-20T02:43:11;9.50;;;5.10;;
47758;SDS011;33520;55.122;35.582;2022-11-20T02:45:38;7.72;;;4.45;;
47758;SDS011;33520;55.122;35.582;2022-11-20T02:48:05;8.32;;;4.22;;
47758;SDS011;33520;55.122;35.582;2022-11-20T02:50:32;8.20;;;4.28;;
47758;SDS011;33520;55.122;35.582;2022-11-20T02:52:58;8.30;;;4.45;;
47758;SDS011;33520;55.122;35.582;2022-11-20T02:55:25;9.25;;;4.60;;
47758;SDS011;33520;55.122;35.582;2022-11-20T02:57:51;9.05;;;4.80;;
47758;SDS011;33520;55.122;35.582;2022-11-20T03:00:17;8.77;;;4.95;;
47758;SDS011;33520;55.122;35.582;2022-11-20T03:02:43;9.35;;;4.63;;
47758;SDS011;33520;55.122;35.582;2022-11-20T03:05:10;8.10;;;4.65;;
47758;SDS011;33520;55.122;35.582;2022-11-20T03:07:36;8.63;;;4.82;;
47758;SDS011;33520;55.122;35.582;2022-11-20T03:10:03;8.00;;;4.82;;
47758;SDS011;33520;55.122;35.582;2022-11-20T03:12:30;10.70;;;4.70;;
47758;SDS011;33520;55.122;35.582;2022-11-20T03:14:56;11.75;;;6.15;;
47758;SDS011;33520;55.122;35.582;2022-11-20T03:17:22;10.23;;;6.18;;
47758;SDS011;33520;55.122;35.582;2022-11-20T03:19:49;10.43;;;4.85;;
47758;SDS011;33520;55.122;35.582;2022-11-20T03:22:15;11.55;;;5.97;;
47758;SDS011;33520;55.122;35.582;2022-11-20T03:24:42;8.90;;;5.18;;
47758;SDS011;33520;55.122;35.582;2022-11-20T03:27:08;10.15;;;5.43;;
47758;SDS011;33520;55.122;35.582;2022-11-20T03:29:37;12.70;;;5.80;;
47758;SDS011;33520;55.122;35.582;2022-11-20T03:32:03;13.82;;;6.53;;
47758;SDS011;33520;55.122;35.582;2022-11-20T03:36:56;12.77;;;6.43;;
47758;SDS011;33520;55.122;35.582;2022-11-20T03:39:22;14.20;;;6.25;;
47758;SDS011;33520;55.122;35.582;2022-11-20T03:41:48;14.00;;;5.45;;
47758;SDS011;33520;55.122;35.582;2022-11-20T03:44:15;12.35;;;6.25;;
47758;SDS011;33520;55.122;35.582;2022-11-20T03:46:41;14.68;;;7.03;;
47758;SDS011;33520;55.122;35.582;2022-11-20T03:49:07;15.43;;;6.28;;
47758;SDS011;33520;55.122;35.582;2022-11-20T03:51:34;13.00;;;6.40;;
47758;SDS011;33520;55.122;35.582;2022-11-20T03:54:03;13.05;;;6.35;;
47758;SDS011;33520;55.122;35.582;2022-11-20T03:56:35;13.77;;;6.72;;
47758;SDS011;33520;55.122;35.582;2022-11-20T03:59:03;16.55;;;6.70;;
47758;SDS011;33520;55.122;35.582;2022-11-20T04:01:31;17.27;;;7.20;;
47758;SDS011;33520;55.122;35.582;2022-11-20T04:04:01;16.17;;;6.40;;
47758;SDS011;33520;55.122;35.582;2022-11-20T04:06:29;14.43;;;7.18;;
47758;SDS011;33520;55.122;35.582;2022-11-20T04:08:57;17.75;;;7.97;;
47758;SDS011;33520;55.122;35.582;2022-11-20T04:11:27;14.80;;;6.75;;
47758;SDS011;33520;55.122;35.582;2022-11-20T04:13:56;17.83;;;8.10;;
47758;SDS011;33520;55.122;35.582;2022-11-20T04:16:24;14.63;;;6.45;;
47758;SDS011;33520;55.122;35.582;2022-11-20T04:18:55;16.92;;;6.97;;
47758;SDS011;33520;55.122;35.582;2022-11-20T04:21:22;19.20;;;7.72;;
47758;SDS011;33520;55.122;35.582;2022-11-20T04:23:50;12.20;;;6.50;;
47758;SDS011;33520;55.122;35.582;2022-11-20T04:26:18;16.15;;;7.78;;
47758;SDS011;33520;55.122;35.582;2022-11-20T04:28:44;19.20;;;7.20;;
47758;SDS011;33520;55.122;35.582;2022-11-20T04:31:21;16.02;;;7.13;;
47758;SDS011;33520;55.122;35.582;2022-11-20T04:33:49;11.55;;;6.28;;
47758;SDS011;33520;55.122;35.582;2022-11-20T04:38:43;17.90;;;7.40;;
47758;SDS011;33520;55.122;35.582;2022-11-20T04:43:40;16.85;;;7.78;;
47758;SDS011;33520;55.122;35.582;2022-11-20T04:46:07;11.98;;;5.85;;
47758;SDS011;33520;55.122;35.582;2022-11-20T04:48:34;15.20;;;7.72;;
47758;SDS011;33520;55.122;35.582;2022-11-20T04:51:02;18.08;;;7.32;;
47758;SDS011;33520;55.122;35.582;2022-11-20T04:53:30;15.20;;;7.47;;
47758;SDS011;33520;55.122;35.582;2022-11-20T04:58:27;17.60;;;7.03;;
47758;SDS011;33520;55.122;35.582;2022-11-20T05:03:19;16.83;;;5.97;;
47758;SDS011;33520;55.122;35.582;2022-11-20T05:05:45;16.15;;;7.63;;
47758;SDS011;33520;55.122;35.582;2022-11-20T05:08:11;14.43;;;6.75;;
47758;SDS011;33520;55.122;35.582;2022-11-20T05:10:38;14.40;;;6.70;;
47758;SDS011;33520;55.122;35.582;2022-11-20T05:13:04;13.85;;;6.72;;
47758;SDS011;33520;55.122;35.582;2022-11-20T05:15:30;13.52;;;6.60;;
47758;SDS011;33520;55.122;35.582;2022-11-20T05:17:58;17.00;;;7.40;;
47758;SDS011;33520;55.122;35.582;2022-11-20T05:20:24;19.02;;;7.43;;
47758;SDS011;33520;55.122;35.582;2022-11-20T05:22:50;13.50;;;7.05;;
47758;SDS011;33520;55.122;35.582;2022-11-20T05:25:17;14.80;;;7.22;;
47758;SDS011;33520;55.122;35.582;2022-11-20T05:27:43;11.95;;;6.45;;
47758;SDS011;33520;55.122;35.582;2022-11-20T05:30:09;15.98;;;7.05;;
47758;SDS011;33520;55.122;35.582;2022-11-20T05:32:36;15.95;;;7.32;;
47758;SDS011;33520;55.122;35.582;2022-11-20T05:35:02;12.35;;;6.68;;
47758;SDS011;33520;55.122;35.582;2022-11-20T05:37:29;17.08;;;7.20;;
47758;SDS011;33520;55.122;35.582;2022-11-20T05:39:55;17.63;;;6.65;;
47758;SDS011;33520;55.122;35.582;2022-11-20T05:44:57;14.73;;;6.45;;
47758;SDS011;33520;55.122;35.582;2022-11-20T05:47:25;14.18;;;6.68;;
47758;SDS011;33520;55.122;35.582;2022-11-20T05:49:52;15.77;;;7.25;;
47758;SDS011;33520;55.122;35.582;2022-11-20T05:52:18;14.82;;;7.07;;
47758;SDS011;33520;55.122;35.582;2022-11-20T05:54:45;14.77;;;6.57;;
47758;SDS011;33520;55.122;35.582;2022-11-20T05:59:38;13.60;;;7.57;;
47758;SDS011;33520;55.122;35.582;2022-11-20T06:02:05;14.98;;;6.60;;
47758;SDS011;33520;55.122;35.582;2022-11-20T06:04:31;20.30;;;7.40;;
47758;SDS011;33520;55.122;35.582;2022-11-20T06:09:24;15.15;;;7.22;;
47758;SDS011;33520;55.122;35.582;2022-11-20T06:14:17;16.25;;;6.15;;
47758;SDS011;33520;55.122;35.582;2022-11-20T06:16:44;11.95;;;6.25;;
47758;SDS011;33520;55.122;35.582;2022-11-20T06:21:36;13.77;;;7.05;;
47758;SDS011;33520;55.122;35.582;2022-11-20T06:26:29;16.60;;;6.78;;
47758;SDS011;33520;55.122;35.582;2022-11-20T06:28:56;15.95;;;7.18;;
47758;SDS011;33520;55.122;35.582;2022-11-20T06:33:49;20.15;;;8.13;;
47758;SDS011;33520;55.122;35.582;2022-11-20T06:36:17;14.02;;;6.85;;
47758;SDS011;33520;55.122;35.582;2022-11-20T06:38:45;15.88;;;8.35;;
47758;SDS011;33520;55.122;35.582;2022-11-20T06:41:13;15.50;;;7.95;;
47758;SDS011;33520;55.122;35.582;2022-11-20T06:43:41;15.85;;;6.88;;
47758;SDS011;33520;55.122;35.582;2022-11-20T06:46:10;18.65;;;7.97;;
47758;SDS011;33520;55.122;35.582;2022-11-20T06:48:37;17.00;;;7.47;;
47758;SDS011;33520;55.122;35.582;2022-11-20T06:51:04;15.13;;;7.45;;
47758;SDS011;33520;55.122;35.582;2022-11-20T06:53:31;15.35;;;7.38;;
47758;SDS011;33520;55.122;35.582;2022-11-20T06:55:57;19.10;;;7.97;;
47758;SDS011;33520;55.122;35.582;2022-11-20T06:58:26;15.30;;;8.25;;
47758;SDS011;33520;55.122;35.582;2022-11-20T07:00:54;17.30;;;8.65;;
47758;SDS011;33520;55.122;35.582;2022-11-20T07:03:23;15.40;;;7.68;;
47758;SDS011;33520;55.122;35.582;2022-11-20T07:05:50;17.58;;;7.68;;
47758;SDS011;33520;55.122;35.582;2022-11-20T07:08:16;16.38;;;8.25;;
47758;SDS011;33520;55.122;35.582;2022-11-20T07:10:42;14.80;;;5.90;;
47758;SDS011;33520;55.122;35.582;2022-11-20T07:13:09;18.40;;;8.13;;
47758;SDS011;33520;55.122;35.582;2022-11-20T07:15:35;18.10;;;8.35;;
47758;SDS011;33520;55.122;35.582;2022-11-20T07:18:01;23.85;;;9.63;;
47758;SDS011;33520;55.122;35.582;2022-11-20T07:20:27;19.33;;;8.57;;
47758;SDS011;33520;55.122;35.582;2022-11-20T07:22:57;16.95;;;7.90;;
47758;SDS011;33520;55.122;35.582;2022-11-20T07:25:24;18.98;;;8.80;;
47758;SDS011;33520;55.122;35.582;2022-11-20T07:27:52;17.35;;;8.02;;
47758;SDS011;33520;55.122;35.582;2022-11-20T07:30:18;13.90;;;7.65;;
47758;SDS011;33520;55.122;35.582;2022-11-20T07:32:50;13.50;;;7.53;;
47758;SDS011;33520;55.122;35.582;2022-11-20T07:35:17;19.73;;;7.75;;
47758;SDS011;33520;55.122;35.582;2022-11-20T07:37:43;20.65;;;8.82;;
47758;SDS011;33520;55.122;35.582;2022-11-20T07:40:12;19.90;;;9.13;;
47758;SDS011;33520;55.122;35.582;2022-11-20T07:42:51;20.67;;;9.07;;
47758;SDS011;33520;55.122;35.582;2022-11-20T07:45:20;19.15;;;8.30;;
47758;SDS011;33520;55.122;35.582;2022-11-20T07:47:47;19.10;;;9.02;;
47758;SDS011;33520;55.122;35.582;2022-11-20T07:50:14;17.08;;;7.53;;
47758;SDS011;33520;55.122;35.582;2022-11-20T07:52:40;14.77;;;7.35;;
47758;SDS011;33520;55.122;35.582;2022-11-20T07:57:34;16.42;;;7.20;;
47758;SDS011;33520;55.122;35.582;2022-11-20T08:00:01;14.98;;;7.75;;
47758;SDS011;33520;55.122;35.582;2022-11-20T08:02:38;17.50;;;7.45;;
47758;SDS011;33520;55.122;35.582;2022-11-20T08:05:08;15.98;;;7.32;;
47758;SDS011;33520;55.122;35.582;2022-11-20T08:07:42;14.00;;;7.53;;
47758;SDS011;33520;55.122;35.582;2022-11-20T08:10:10;15.00;;;7.18;;
47758;SDS011;33520;55.122;35.582;2022-11-20T08:12:48;15.88;;;7.38;;
47758;SDS011;33520;55.122;35.582;2022-11-20T08:15:34;14.95;;;8.27;;
47758;SDS011;33520;55.122;35.582;2022-11-20T08:18:01;16.00;;;6.93;;
47758;SDS011;33520;55.122;35.582;2022-11-20T08:20:36;15.88;;;7.63;;
47758;SDS011;33520;55.122;35.582;2022-11-20T08:23:03;15.63;;;7.57;;
47758;SDS011;33520;55.122;35.582;2022-11-20T08:25:31;14.13;;;7.18;;
47758;SDS011;33520;55.122;35.582;2022-11-20T08:27:59;19.15;;;8.50;;
47758;SDS011;33520;55.122;35.582;2022-11-20T08:30:27;14.55;;;7.60;;
47758;SDS011;33520;55.122;35.582;2022-11-20T08:32:53;13.60;;;7.35;;
47758;SDS011;33520;55.122;35.582;2022-11-20T08:35:23;15.52;;;7.85;;
47758;SDS011;33520;55.122;35.582;2022-11-20T08:37:49;15.73;;;7.45;;
47758;SDS011;33520;55.122;35.582;2022-11-20T08:40:15;11.77;;;6.43;;
47758;SDS011;33520;55.122;35.582;2022-11-20T08:42:45;15.13;;;7.38;;
47758;SDS011;33520;55.122;35.582;2022-11-20T08:45:15;20.17;;;8.07;;
47758;SDS011;33520;55.122;35.582;2022-11-20T08:47:42;14.40;;;7.28;;
47758;SDS011;33520;55.122;35.582;2022-11-20T08:50:09;17.98;;;7.10;;
47758;SDS011;33520;55.122;35.582;2022-11-20T08:52:36;14.95;;;7.57;;
47758;SDS011;33520;55.122;35.582;2022-11-20T08:55:02;13.32;;;7.45;;
47758;SDS011;33520;55.122;35.582;2022-11-20T08:57:31;18.45;;;8.25;;
47758;SDS011;33520;55.122;35.582;2022-11-20T08:59:58;18.23;;;7.78;;
47758;SDS011;33520;55.122;35.582;2022-11-20T09:02:25;17.88;;;8.52;;
47758;SDS011;33520;55.122;35.582;2022-11-20T09:04:52;17.63;;;9.07;;
47758;SDS011;33520;55.122;35.582;2022-11-20T09:07:19;16.85;;;8.35;;
47758;SDS011;33520;55.122;35.582;2022-11-20T09:09:46;15.70;;;8.25;;
47758;SDS011;33520;55.122;35.582;2022-11-20T09:12:12;16.70;;;8.20;;
47758;SDS011;33520;55.122;35.582;2022-11-20T09:17:05;15.48;;;7.85;;
47758;SDS011;33520;55.122;35.582;2022-11-20T09:19:33;14.00;;;7.57;;
47758;SDS011;33520;55.122;35.582;2022-11-20T09:24:26;15.80;;;7.15;;
47758;SDS011;33520;55.122;35.582;2022-11-20T09:26:53;12.05;;;7.10;;
47758;SDS011;33520;55.122;35.582;2022-11-20T09:29:21;15.80;;;7.75;;
47758;SDS011;33520;55.122;35.582;2022-11-20T09:31:47;16.95;;;8.07;;
47758;SDS011;33520;55.122;35.582;2022-11-20T09:34:13;17.15;;;8.13;;
47758;SDS011;33520;55.122;35.582;2022-11-20T09:36:39;15.55;;;7.78;;
47758;SDS011;33520;55.122;35.582;2022-11-20T09:39:06;15.88;;;7.75;;
47758;SDS011;33520;55.122;35.582;2022-11-20T09:44:24;16.58;;;8.68;;
47758;SDS011;33520;55.122;35.582;2022-11-20T09:47:13;15.80;;;8.20;;
47758;SDS011;33520;55.122;35.582;2022-11-20T09:54:48;16.42;;;8.02;;
47758;SDS011;33520;55.122;35.582;2022-11-20T09:57:17;18.95;;;8.23;;
47758;SDS011;33520;55.122;35.582;2022-11-20T09:59:50;16.65;;;8.77;;
47758;SDS011;33520;55.122;35.582;2022-11-20T10:05:02;16.95;;;8.98;;
47758;SDS011;33520;55.122;35.582;2022-11-20T10:07:36;15.45;;;8.18;;
47758;SDS011;33520;55.122;35.582;2022-11-20T10:10:14;17.58;;;8.13;;
47758;SDS011;33520;55.122;35.582;2022-11-20T10:15:33;16.88;;;7.70;;
47758;SDS011;33520;55.122;35.582;2022-11-20T10:29:27;18.60;;;8.38;;
47758;SDS011;33520;55.122;35.582;2022-11-20T10:32:03;20.80;;;8.15;;
47758;SDS011;33520;55.122;35.582;2022-11-20T10:37:23;16.95;;;8.15;;
47758;SDS011;33520;55.122;35.582;2022-11-20T10:39:57;16.30;;;8.60;;
47758;SDS011;33520;55.122;35.582;2022-11-20T10:42:31;15.32;;;7.93;;
47758;SDS011;33520;55.122;35.582;2022-11-20T10:45:50;17.20;;;8.45;;
47758;SDS011;33520;55.122;35.582;2022-11-20T10:47:51;15.05;;;7.88;;
47758;SDS011;33520;55.122;35.582;2022-11-20T10:50:20;17.58;;;7.53;;
47758;SDS011;33520;55.122;35.582;2022-11-20T10:55:40;18.13;;;7.45;;
47758;SDS011;33520;55.122;35.582;2022-11-20T11:01:03;15.20;;;8.00;;
47758;SDS011;33520;55.122;35.582;2022-11-20T11:03:30;15.75;;;8.10;;
47758;SDS011;33520;55.122;35.582;2022-11-20T11:08:35;13.23;;;7.20;;
47758;SDS011;33520;55.122;35.582;2022-11-20T11:11:26;15.80;;;7.30;;
47758;SDS011;33520;55.122;35.582;2022-11-20T11:16:26;14.55;;;6.95;;
47758;SDS011;33520;55.122;35.582;2022-11-20T11:19:03;12.80;;;6.78;;
47758;SDS011;33520;55.122;35.582;2022-11-20T11:21:31;13.10;;;6.15;;
47758;SDS011;33520;55.122;35.582;2022-11-20T11:24:01;11.43;;;5.90;;
47758;SDS011;33520;55.122;35.582;2022-11-20T11:26:29;12.15;;;6.85;;
47758;SDS011;33520;55.122;35.582;2022-11-20T11:28:56;18.75;;;8.55;;
47758;SDS011;33520;55.122;35.582;2022-11-20T11:31:29;13.73;;;8.38;;
47758;SDS011;33520;55.122;35.582;2022-11-20T11:34:13;11.25;;;6.15;;
47758;SDS011;33520;55.122;35.582;2022-11-20T11:36:40;10.93;;;6.20;;
47758;SDS011;33520;55.122;35.582;2022-11-20T11:39:17;13.30;;;7.07;;
47758;SDS011;33520;55.122;35.582;2022-11-20T11:44:20;12.98;;;6.63;;
47758;SDS011;33520;55.122;35.582;2022-11-20T11:47:06;11.02;;;6.22;;
47758;SDS011;33520;55.122;35.582;2022-11-20T11:49:46;12.75;;;6.07;;
47758;SDS011;33520;55.122;35.582;2022-11-20T11:52:14;12.48;;;5.95;;
47758;SDS011;33520;55.122;35.582;2022-11-20T11:54:53;10.07;;;5.53;;
47758;SDS011;33520;55.122;35.582;2022-11-20T11:57:26;14.35;;;7.15;;
47758;SDS011;33520;55.122;35.582;2022-11-20T12:10:30;12.32;;;6.57;;
47758;SDS011;33520;55.122;35.582;2022-11-20T12:16:07;10.85;;;7.20;;
47758;SDS011;33520;55.122;35.582;2022-11-20T12:18:36;11.10;;;6.05;;
47758;SDS011;33520;55.122;35.582;2022-11-20T12:21:20;11.85;;;6.75;;
47758;SDS011;33520;55.122;35.582;2022-11-20T12:26:45;16.45;;;9.85;;
47758;SDS011;33520;55.122;35.582;2022-11-20T12:29:40;12.75;;;6.72;;
47758;SDS011;33520;55.122;35.582;2022-11-20T12:52:38;11.50;;;5.18;;
47758;SDS011;33520;55.122;35.582;2022-11-20T12:55:23;9.52;;;5.20;;
47758;SDS011;33520;55.122;35.582;2022-11-20T12:58:11;9.07;;;4.90;;
47758;SDS011;33520;55.122;35.582;2022-11-20T13:03:58;10.77;;;5.25;;
47758;SDS011;33520;55.122;35.582;2022-11-20T13:06:31;9.18;;;5.10;;
47758;SDS011;33520;55.122;35.582;2022-11-20T13:08:57;9.70;;;5.50;;
47758;SDS011;33520;55.122;35.582;2022-11-20T13:19:49;8.85;;;5.13;;
47758;SDS011;33520;55.122;35.582;2022-11-20T13:22:25;9.32;;;5.32;;
47758;SDS011;33520;55.122;35.582;2022-11-20T13:24:57;8.02;;;4.75;;
47758;SDS011;33520;55.122;35.582;2022-11-20T13:27:23;10.43;;;5.15;;
47758;SDS011;33520;55.122;35.582;2022-11-20T13:32:26;7.47;;;4.43;;
47758;SDS011;33520;55.122;35.582;2022-11-20T13:35:01;11.93;;;6.05;;
47758;SDS011;33520;55.122;35.582;2022-11-20T13:37:33;10.65;;;5.03;;
47758;SDS011;33520;55.122;35.582;2022-11-20T13:40:05;9.68;;;5.07;;
47758;SDS011;33520;55.122;35.582;2022-11-20T13:42:45;8.30;;;4.80;;
47758;SDS011;33520;55.122;35.582;2022-11-20T13:45:25;8.60;;;4.80;;
47758;SDS011;33520;55.122;35.582;2022-11-20T13:47:54;9.30;;;5.15;;
47758;SDS011;33520;55.122;35.582;2022-11-20T13:50:24;8.27;;;4.93;;
47758;SDS011;33520;55.122;35.582;2022-11-20T13:53:33;9.32;;;5.22;;
47758;SDS011;33520;55.122;35.582;2022-11-20T13:56:36;9.70;;;5.50;;
47758;SDS011;33520;55.122;35.582;2022-11-20T14:01:55;9.05;;;5.38;;
47758;SDS011;33520;55.122;35.582;2022-11-20T14:04:35;7.90;;;4.53;;
47758;SDS011;33520;55.122;35.582;2022-11-20T14:07:02;9.00;;;4.93;;
47758;SDS011;33520;55.122;35.582;2022-11-20T14:09:32;10.90;;;4.97;;
47758;SDS011;33520;55.122;35.582;2022-11-20T14:11:59;10.40;;;5.50;;
47758;SDS011;33520;55.122;35.582;2022-11-20T14:14:28;9.45;;;4.95;;
47758;SDS011;33520;55.122;35.582;2022-11-20T14:17:06;9.23;;;5.75;;
47758;SDS011;33520;55.122;35.582;2022-11-20T14:19:33;9.40;;;5.22;;
47758;SDS011;33520;55.122;35.582;2022-11-20T14:22:19;9.70;;;5.85;;
47758;SDS011;33520;55.122;35.582;2022-11-20T14:25:04;11.18;;;5.70;;
47758;SDS011;33520;55.122;35.582;2022-11-20T14:27:51;10.73;;;5.65;;
47758;SDS011;33520;55.122;35.582;2022-11-20T14:30:20;11.07;;;6.22;;
47758;SDS011;33520;55.122;35.582;2022-11-20T14:32:51;9.30;;;5.35;;
47758;SDS011;33520;55.122;35.582;2022-11-20T14:35:26;9.57;;;5.30;;
47758;SDS011;33520;55.122;35.582;2022-11-20T14:37:54;9.80;;;5.45;;
47758;SDS011;33520;55.122;35.582;2022-11-20T14:40:42;9.32;;;4.65;;
47758;SDS011;33520;55.122;35.582;2022-11-20T14:43:21;10.90;;;5.40;;
47758;SDS011;33520;55.122;35.582;2022-11-20T14:45:55;11.75;;;5.40;;
47758;SDS011;33520;55.122;35.582;2022-11-20T14:48:33;10.20;;;5.47;;
47758;SDS011;33520;55.122;35.582;2022-11-20T14:51:04;8.88;;;4.60;;
47758;SDS011;33520;55.122;35.582;2022-11-20T14:53:31;9.55;;;5.35;;
47758;SDS011;33520;55.122;35.582;2022-11-20T14:55:59;8.25;;;5.32;;
47758;SDS011;33520;55.122;35.582;2022-11-20T14:58:28;9.38;;;5.03;;
47758;SDS011;33520;55.122;35.582;2022-11-20T15:01:00;9.35;;;5.50;;
47758;SDS011;33520;55.122;35.582;2022-11-20T15:03:46;8.88;;;4.90;;
47758;SDS011;33520;55.122;35.582;2022-11-20T15:06:13;7.40;;;4.65;;
47758;SDS011;33520;55.122;35.582;2022-11-20T15:08:49;8.60;;;5.05;;
47758;SDS011;33520;55.122;35.582;2022-11-20T15:11:20;7.88;;;4.97;;
47758;SDS011;33520;55.122;35.582;2022-11-20T15:13:51;12.80;;;4.72;;
47758;SDS011;33520;55.122;35.582;2022-11-20T15:16:18;8.63;;;4.85;;
47758;SDS011;33520;55.122;35.582;2022-11-20T15:18:46;10.23;;;5.35;;
47758;SDS011;33520;55.122;35.582;2022-11-20T15:23:40;6.35;;;4.25;;
47758;SDS011;33520;55.122;35.582;2022-11-20T15:26:08;9.30;;;5.05;;
47758;SDS011;33520;55.122;35.582;2022-11-20T15:28:39;8.65;;;5.05;;
47758;SDS011;33520;55.122;35.582;2022-11-20T15:31:09;10.93;;;5.00;;
47758;SDS011;33520;55.122;35.582;2022-11-20T15:33:37;8.38;;;4.07;;
47758;SDS011;33520;55.122;35.582;2022-11-20T15:36:04;7.47;;;3.85;;
47758;SDS011;33520;55.122;35.582;2022-11-20T15:38:30;6.45;;;3.95;;
47758;SDS011;33520;55.122;35.582;2022-11-20T15:40:57;8.52;;;4.22;;
47758;SDS011;33520;55.122;35.582;2022-11-20T15:43:23;8.07;;;4.18;;
47758;SDS011;33520;55.122;35.582;2022-11-20T15:45:59;7.28;;;4.60;;
47758;SDS011;33520;55.122;35.582;2022-11-20T15:48:29;7.95;;;3.78;;
47758;SDS011;33520;55.122;35.582;2022-11-20T15:50:57;7.13;;;4.15;;
47758;SDS011;33520;55.122;35.582;2022-11-20T15:53:27;9.48;;;4.82;;
47758;SDS011;33520;55.122;35.582;2022-11-20T15:55:53;8.15;;;4.53;;
47758;SDS011;33520;55.122;35.582;2022-11-20T15:58:20;8.80;;;4.18;;
47758;SDS011;33520;55.122;35.582;2022-11-20T16:00:48;6.90;;;4.32;;
47758;SDS011;33520;55.122;35.582;2022-11-20T16:05:42;7.53;;;3.95;;
47758;SDS011;33520;55.122;35.582;2022-11-20T16:08:08;6.82;;;3.65;;
47758;SDS011;33520;55.122;35.582;2022-11-20T16:10:35;8.60;;;3.95;;
47758;SDS011;33520;55.122;35.582;2022-11-20T16:13:01;8.38;;;3.78;;
47758;SDS011;33520;55.122;35.582;2022-11-20T16:15:55;5.18;;;3.40;;
47758;SDS011;33520;55.122;35.582;2022-11-20T16:18:22;6.00;;;3.97;;
47758;SDS011;33520;55.122;35.582;2022-11-20T16:20:50;7.13;;;3.97;;
47758;SDS011;33520;55.122;35.582;2022-11-20T16:23:21;7.05;;;3.33;;
47758;SDS011;33520;55.122;35.582;2022-11-20T16:25:47;8.05;;;3.92;;
47758;SDS011;33520;55.122;35.582;2022-11-20T16:28:14;6.65;;;3.67;;
47758;SDS011;33520;55.122;35.582;2022-11-20T16:30:40;8.32;;;4.57;;
47758;SDS011;33520;55.122;35.582;2022-11-20T16:33:11;6.20;;;3.38;;
47758;SDS011;33520;55.122;35.582;2022-11-20T16:35:38;6.95;;;4.07;;
47758;SDS011;33520;55.122;35.582;2022-11-20T16:38:04;7.60;;;3.90;;
47758;SDS011;33520;55.122;35.582;2022-11-20T16:40:31;7.68;;;4.25;;
47758;SDS011;33520;55.122;35.582;2022-11-20T16:42:57;7.78;;;4.20;;
47758;SDS011;33520;55.122;35.582;2022-11-20T16:45:27;8.50;;;4.05;;
47758;SDS011;33520;55.122;35.582;2022-11-20T16:47:54;9.63;;;4.50;;
47758;SDS011;33520;55.122;35.582;2022-11-20T16:50:20;6.90;;;3.90;;
47758;SDS011;33520;55.122;35.582;2022-11-20T16:52:47;6.50;;;3.65;;
47758;SDS011;33520;55.122;35.582;2022-11-20T16:55:13;8.38;;;3.90;;
47758;SDS011;33520;55.122;35.582;2022-11-20T17:00:07;7.15;;;4.00;;
47758;SDS011;33520;55.122;35.582;2022-11-20T17:02:34;8.32;;;4.20;;
47758;SDS011;33520;55.122;35.582;2022-11-20T17:05:02;6.38;;;3.83;;
47758;SDS011;33520;55.122;35.582;2022-11-20T17:07:28;8.07;;;4.80;;
47758;SDS011;33520;55.122;35.582;2022-11-20T17:09:55;10.70;;;5.18;;
47758;SDS011;33520;55.122;35.582;2022-11-20T17:12:21;10.63;;;5.57;;
47758;SDS011;33520;55.122;35.582;2022-11-20T17:14:48;13.38;;;6.05;;